Ringgold, Texas
Current Conditions -  °F | °C
As of 2:15 AM on Monday 24 Nov 2014 (Local Time) from K0F2 Reporting Station
Clear Clear  
Wind Chill: 39°   Ceiling: Unl
Heat Index: 43°   Visibility: 10mi
Dew Point: 35°   Wind: 6mph
Humidity: 75%   Direction: 290°WNW
Pressure: 29.89"   Gusts: NA
Location:  33.82°N, 97.94°W
Report Text: K0F2 240815Z AUTO 29005KT 10SM CLR 06/02 A2989 RMK AO2 T00600018
Loading
Personal Weather Stations






























Interactive Weather Map New forecast layout! Learn more

10-Day Weather Forecast

Advertisements
Track Severe Weather on mobile